Time;durP1;ratioP1;P1;durP2;ratioP2;P2;SDS_P1;SDS_P2;PMS_P1;PMS_P2;Temp;Humidity;BMP_temperature;BMP_pressure;BME280_temperature;BME280_humidity;BME280_pressure;Samples;Min_cycle;Max_cycle;Signal;HPM_P1;HPM_P2
2022/04/20 04:48:39;;;;;;;1.77;1.67;;;4.20;99.90;;;;;;4937524;29;20203;-65
2022/04/20 04:51:07;;;;;;;1.38;1.38;;;4.20;99.90;;;;;;4937418;29;20200;-65
2022/04/20 04:53:34;;;;;;;5.38;1.65;;;4.30;99.90;;;;;;4937189;29;20700;-66
2022/04/20 04:56:01;;;;;;;2.20;1.60;;;4.40;99.90;;;;;;4929410;29;20252;-65
2022/04/20 04:58:28;;;;;;;1.52;1.52;;;4.40;99.90;;;;;;4918498;29;20233;-65
2022/04/20 05:00:56;;;;;;;1.20;1.20;;;4.50;99.90;;;;;;4918653;29;20711;-67
2022/04/20 05:03:23;;;;;;;1.17;1.17;;;4.70;99.90;;;;;;4918359;29;20273;-67
2022/04/20 05:05:50;;;;;;;1.90;1.80;;;5.00;99.90;;;;;;4917927;29;20264;-67
2022/04/20 05:08:17;;;;;;;3.50;2.30;;;5.40;99.90;;;;;;4918011;29;20572;-67
2022/04/20 05:10:44;;;;;;;1.30;1.30;;;5.90;99.90;;;;;;4918250;29;20201;-67
2022/04/20 05:13:11;;;;;;;1.95;1.85;;;6.50;95.60;;;;;;4917978;29;20216;-67
2022/04/20 05:15:38;;;;;;;2.10;1.90;;;7.00;86.20;;;;;;4918168;29;20231;-67
2022/04/20 05:18:08;;;;;;;1.63;1.50;;;;;;;;;;4917882;29;20244;-67
2022/04/20 05:20:35;;;;;;;3.50;1.83;;;8.00;82.20;;;;;;4918118;29;20241;-67
2022/04/20 05:23:02;;;;;;;1.30;1.20;;;8.60;63.80;;;;;;4917998;29;20708;-67
2022/04/20 05:25:29;;;;;;;1.27;1.20;;;9.30;64.10;;;;;;4918562;29;20313;-67
2022/04/20 05:27:56;;;;;;;1.30;1.30;;;10.20;56.70;;;;;;4918722;29;20330;-67
2022/04/20 05:30:22;;;;;;;1.63;1.55;;;10.90;57.20;;;;;;4917924;29;20241;-67
2022/04/20 05:32:49;;;;;;;1.60;1.50;;;11.60;52.40;;;;;;4917839;29;20205;-67
2022/04/20 05:35:18;;;;;;;1.30;1.30;;;12.40;47.20;;;;;;4920046;29;20248;-67
2022/04/20 05:43:15;;;;;;;1.42;1.40;;;12.40;42.20;;;;;;4922157;29;20185;-68
2022/04/20 05:45:42;;;;;;;1.58;1.48;;;12.60;43.60;;;;;;4921986;29;20236;-67
2022/04/20 05:48:10;;;;;;;2.35;1.95;;;12.40;40.90;;;;;;4921907;29;20315;-67
2022/04/20 05:50:39;;;;;;;1.25;1.20;;;12.70;42.20;;;;;;4922224;29;20684;-68
2022/04/20 05:53:07;;;;;;;1.50;1.50;;;13.20;40.60;;;;;;4921904;29;20213;-68
2022/04/20 05:55:34;;;;;;;3.83;1.38;;;13.70;38.30;;;;;;4922645;29;20225;-68
2022/04/20 05:58:01;;;;;;;1.48;1.38;;;14.00;40.30;;;;;;4923483;29;20564;-68
2022/04/20 06:00:30;;;;;;;1.20;1.20;;;14.60;37.20;;;;;;4920722;29;20229;-68
2022/04/20 06:02:58;;;;;;;1.23;1.13;;;15.00;36.20;;;;;;4922455;29;20264;-67
2022/04/20 06:05:25;;;;;;;1.20;1.20;;;14.80;36.00;;;;;;4922339;29;20225;-67
2022/04/20 06:07:55;;;;;;;1.38;1.30;;;13.90;35.10;;;;;;4923642;29;20225;-68
2022/04/20 06:10:23;;;;;;;1.55;1.45;;;13.10;36.50;;;;;;4922532;29;20563;-67
2022/04/20 06:12:51;;;;;;;2.28;1.20;;;12.70;37.30;;;;;;4922705;29;20269;-67
2022/04/20 06:15:18;;;;;;;1.35;1.25;;;12.80;38.50;;;;;;4922731;29;20205;-68
2022/04/20 06:17:45;;;;;;;1.88;1.70;;;13.50;37.40;;;;;;4921773;29;20209;-67
2022/04/20 06:20:13;;;;;;;1.00;1.00;;;14.00;35.80;;;;;;4922309;29;20265;-68
2022/04/20 06:22:40;;;;;;;1.15;1.15;;;14.70;38.40;;;;;;4922610;29;20221;-68
2022/04/20 06:25:10;;;;;;;1.75;1.40;;;15.80;33.90;;;;;;4921965;29;20240;-67
2022/04/20 06:27:37;;;;;;;2.05;1.10;;;16.10;29.70;;;;;;4922055;29;20704;-67
2022/04/20 06:30:06;;;;;;;1.25;1.15;;;16.60;29.60;;;;;;4922075;29;20201;-68
2022/04/20 06:32:33;;;;;;;1.00;1.00;;;17.30;29.20;;;;;;4922090;29;20301;-68
2022/04/20 06:35:01;;;;;;;1.10;1.10;;;18.30;31.20;;;;;;4921932;29;20268;-67
2022/04/20 06:37:28;;;;;;;2.35;0.95;;;18.90;29.90;;;;;;4922117;29;20291;-68
2022/04/20 06:39:56;;;;;;;1.13;1.13;;;18.70;29.50;;;;;;4921700;29;20319;-68
2022/04/20 06:42:26;;;;;;;0.77;0.77;;;18.80;29.00;;;;;;4921511;29;20649;-68
2022/04/20 06:44:53;;;;;;;2.65;1.08;;;18.10;30.50;;;;;;4918025;29;20723;-68
2022/04/20 06:47:20;;;;;;;0.90;0.90;;;17.90;29.60;;;;;;4916739;29;20267;-68
2022/04/20 06:49:47;;;;;;;1.00;1.00;;;16.40;31.50;;;;;;4917004;29;20208;-68
2022/04/20 07:00:28;;;;;;;1.30;0.88;;;19.00;29.80;;;;;;4917173;29;20189;-68
2022/04/20 07:03:02;;;;;;;0.93;0.93;;;19.30;29.10;;;;;;4917195;29;20252;-68
2022/04/20 07:05:29;;;;;;;1.20;1.10;;;19.20;29.10;;;;;;4917883;29;20267;-68
2022/04/20 07:07:55;;;;;;;0.90;0.90;;;19.10;29.30;;;;;;4920304;29;20245;-67
2022/04/20 07:10:22;;;;;;;2.00;1.25;;;19.60;29.10;;;;;;4920349;29;20638;-67
2022/04/20 07:12:51;;;;;;;0.90;0.90;;;19.00;29.90;;;;;;4920579;29;20236;-69
2022/04/20 07:15:18;;;;;;;4.50;1.35;;;19.90;29.50;;;;;;4920138;29;20240;-67
2022/04/20 07:17:45;;;;;;;0.90;0.90;;;20.40;29.30;;;;;;4920396;29;20201;-68
2022/04/20 07:20:17;;;;;;;0.80;0.80;;;21.40;30.40;;;;;;4920170;29;20212;-69
2022/04/20 07:22:44;;;;;;;1.27;1.17;;;22.50;34.90;;;;;;4920089;29;20652;-68
2022/04/20 07:25:11;;;;;;;1.02;0.88;;;23.00;33.80;;;;;;4919959;29;20665;-68
2022/04/20 07:27:38;;;;;;;3.10;1.17;;;23.50;32.60;;;;;;4920203;29;20252;-69
2022/04/20 07:30:08;;;;;;;1.00;0.93;;;22.80;34.40;;;;;;4920341;29;20240;-69
2022/04/20 07:32:35;;;;;;;1.00;1.00;;;23.00;32.00;;;;;;4920210;29;20221;-67
2022/04/20 07:35:02;;;;;;;1.77;1.42;;;21.10;31.70;;;;;;4920164;29;20255;-67
2022/04/20 07:37:29;;;;;;;1.42;1.17;;;18.50;33.70;;;;;;4920176;29;20248;-67
2022/04/20 07:39:56;;;;;;;1.10;0.93;;;18.20;34.80;;;;;;4919995;29;20205;-68
2022/04/20 07:42:23;;;;;;;0.90;0.90;;;17.90;35.60;;;;;;4923592;29;20768;-68
2022/04/20 07:44:50;;;;;;;1.05;1.00;;;18.50;34.60;;;;;;4926871;29;20216;-67
2022/04/20 07:47:22;;;;;;;2.13;1.00;;;19.30;34.30;;;;;;4919873;29;20264;-67
2022/04/20 07:52:38;;;;;;;1.10;1.10;;;20.60;32.00;;;;;;4916615;29;20200;-68
2022/04/20 07:55:10;;;;;;;1.08;1.08;;;19.70;33.10;;;;;;4919531;29;20642;-68
2022/04/20 07:57:37;;;;;;;1.13;1.13;;;19.90;32.90;;;;;;4920003;29;20271;-68
2022/04/20 08:00:05;;;;;;;1.00;1.00;;;19.80;33.40;;;;;;4919898;29;20248;-68
2022/04/20 08:02:34;;;;;;;2.63;1.35;;;20.40;32.90;;;;;;4919760;29;20246;-67
2022/04/20 08:05:01;;;;;;;0.80;0.80;;;20.10;31.70;;;;;;4919671;29;20301;-67
2022/04/20 08:07:28;;;;;;;1.25;1.15;;;19.60;32.70;;;;;;4919677;29;20260;-68
2022/04/20 08:09:55;;;;;;;1.35;1.25;;;18.30;34.20;;;;;;4919578;29;20251;-68
2022/04/20 08:12:24;;;;;;;1.52;1.42;;;17.80;34.60;;;;;;4919997;29;20247;-67
2022/04/20 08:14:51;;;;;;;1.40;1.40;;;16.50;35.00;;;;;;4919663;29;20213;-68
2022/04/20 08:17:18;;;;;;;1.45;1.45;;;15.50;36.50;;;;;;4918988;29;20216;-68
2022/04/20 08:19:46;;;;;;;1.83;1.73;;;14.10;37.30;;;;;;4919133;29;20644;-68
2022/04/20 08:22:14;;;;;;;2.10;1.92;;;13.40;37.10;;;;;;4919113;29;20251;-67
2022/04/20 08:24:43;;;;;;;2.00;1.63;;;12.50;37.70;;;;;;4919488;29;20663;-67
2022/04/20 08:27:10;;;;;;;1.63;1.60;;;11.90;39.00;;;;;;4919297;29;20225;-67
2022/04/20 08:29:37;;;;;;;1.92;1.83;;;11.40;39.50;;;;;;4919197;29;20744;-67
2022/04/20 08:32:05;;;;;;;1.52;1.52;;;10.90;39.70;;;;;;4918883;29;20210;-67
2022/04/20 08:34:32;;;;;;;1.50;1.20;;;10.30;40.30;;;;;;4919089;29;20205;-67
2022/04/20 08:37:00;;;;;;;3.67;1.65;;;10.40;41.90;;;;;;4918857;29;20260;-67
2022/04/20 08:39:27;;;;;;;1.77;1.67;;;10.50;41.30;;;;;;4919035;29;20307;-67
2022/04/20 08:41:55;;;;;;;3.28;1.80;;;10.60;41.50;;;;;;4919252;29;20193;-67
2022/04/20 08:44:27;;;;;;;2.58;1.48;;;10.80;40.80;;;;;;4919057;29;20288;-67
2022/04/20 08:46:55;;;;;;;1.60;1.50;;;10.90;41.30;;;;;;4918667;29;20263;-67
2022/04/20 08:49:23;;;;;;;1.85;1.75;;;11.10;40.50;;;;;;4918970;29;20240;-67
2022/04/20 08:54:37;;;;;;;2.00;2.00;;;10.70;40.80;;;;;;4919264;29;20192;-67
2022/04/20 08:57:20;;;;;;;1.98;1.88;;;10.80;40.30;;;;;;4920326;29;20262;-67
2022/04/20 08:59:49;;;;;;;1.85;1.75;;;10.80;40.80;;;;;;4919092;29;20194;-67
2022/04/20 09:02:18;;;;;;;3.28;1.77;;;10.70;41.00;;;;;;4918538;29;20246;-67
2022/04/20 09:04:45;;;;;;;1.52;1.42;;;10.90;40.50;;;;;;4918536;29;20725;-67
2022/04/20 09:07:15;;;;;;;2.00;1.90;;;10.80;40.40;;;;;;4918402;29;20279;-67
2022/04/20 09:09:43;;;;;;;1.98;1.88;;;10.70;40.40;;;;;;4918967;29;20237;-68
2022/04/20 09:12:14;;;;;;;2.00;1.90;;;10.50;40.90;;;;;;4918550;29;20205;-67
2022/04/20 09:14:43;;;;;;;2.63;1.83;;;10.40;41.20;;;;;;4918050;29;20680;-67
2022/04/20 09:17:12;;;;;;;1.85;1.85;;;10.30;41.00;;;;;;4918202;29;20312;-68
2022/04/20 09:19:40;;;;;;;3.90;1.83;;;10.30;41.70;;;;;;4918323;29;20279;-68
2022/04/20 09:22:22;;;;;;;2.17;1.95;;;10.40;41.30;;;;;;4918298;29;20247;-67
2022/04/20 09:25:06;;;;;;;1.92;1.83;;;10.40;41.50;;;;;;4916146;29;20227;-67
2022/04/20 09:27:35;;;;;;;1.98;1.85;;;10.60;41.70;;;;;;4917739;29;20214;-67
2022/04/20 09:30:04;;;;;;;1.88;1.77;;;10.60;41.70;;;;;;4917849;29;20248;-67
2022/04/20 09:32:36;;;;;;;1.73;1.50;;;10.80;42.00;;;;;;4917936;29;20201;-68
2022/04/20 09:35:06;;;;;;;1.80;1.70;;;11.00;42.20;;;;;;4917850;29;20205;-66
2022/04/20 09:37:34;;;;;;;1.50;1.40;;;11.00;41.10;;;;;;4917582;29;20775;-67
2022/04/20 09:40:01;;;;;;;2.28;1.60;;;10.90;41.50;;;;;;4917930;29;20602;-66
2022/04/20 09:42:31;;;;;;;1.90;1.80;;;10.90;41.50;;;;;;4917680;29;20568;-67
2022/04/20 09:45:00;;;;;;;3.13;1.83;;;11.00;41.60;;;;;;4917800;29;20206;-66
2022/04/20 09:50:16;;;;;;;1.60;1.50;;;10.80;41.80;;;;;;4918060;29;20193;-67
2022/04/20 09:52:47;;;;;;;1.70;1.60;;;10.90;42.30;;;;;;4917852;29;20199;-67
2022/04/20 09:55:15;;;;;;;4.13;2.03;;;10.90;41.80;;;;;;4917446;29;20562;-66
2022/04/20 09:57:43;;;;;;;2.13;2.00;;;10.80;41.60;;;;;;4917639;29;20198;-68
2022/04/20 10:00:12;;;;;;;2.22;2.05;;;10.80;42.00;;;;;;4918050;29;20606;-67
2022/04/20 10:02:44;;;;;;;2.30;1.60;;;10.80;41.90;;;;;;4917600;29;20241;-67
2022/04/20 10:05:12;;;;;;;2.65;2.22;;;10.80;42.80;;;;;;4917487;29;20222;-67
2022/04/20 10:07:39;;;;;;;1.50;1.40;;;10.90;42.60;;;;;;4917297;29;20221;-67
2022/04/20 10:10:07;;;;;;;2.17;2.00;;;10.90;42.90;;;;;;4917227;29;20582;-66
2022/04/20 10:12:39;;;;;;;2.15;2.05;;;11.00;43.20;;;;;;4917617;29;20312;-67
2022/04/20 10:17:53;;;;;;;1.88;1.77;;;11.20;42.70;;;;;;4885866;29;20194;-66
2022/04/20 10:20:21;;;;;;;1.70;1.60;;;11.20;42.10;;;;;;4917075;29;20296;-66
2022/04/20 10:22:49;;;;;;;4.38;1.60;;;11.10;42.00;;;;;;4917386;29;20273;-67
2022/04/20 10:25:16;;;;;;;2.10;2.00;;;11.20;43.60;;;;;;4917243;29;20244;-68
2022/04/20 10:28:00;;;;;;;2.70;1.73;;;11.20;43.10;;;;;;4917146;29;20323;-68
2022/04/20 10:30:39;;;;;;;2.00;1.90;;;11.20;42.70;;;;;;4917199;29;20190;-68
2022/04/20 10:33:09;;;;;;;2.17;2.13;;;11.20;43.00;;;;;;4916882;29;20236;-68
2022/04/20 10:36:00;;;;;;;1.98;1.60;;;11.30;43.20;;;;;;4916446;29;20268;-68
2022/04/20 10:38:30;;;;;;;2.10;1.98;;;11.40;43.20;;;;;;4917041;29;20218;-68
2022/04/20 10:40:59;;;;;;;2.60;1.90;;;11.60;42.60;;;;;;4920214;29;20213;-68
2022/04/20 10:43:27;;;;;;;2.15;1.88;;;11.70;42.60;;;;;;4920643;29;20300;-68
2022/04/20 10:46:11;;;;;;;1.85;1.85;;;11.60;42.70;;;;;;4920610;29;20229;-68
2022/04/20 10:48:55;;;;;;;2.92;1.77;;;11.60;42.90;;;;;;4920504;29;20748;-68
2022/04/20 10:51:23;;;;;;;1.73;1.60;;;11.70;43.20;;;;;;4920740;29;20709;-68
2022/04/20 10:53:52;;;;;;;2.20;2.10;;;11.80;43.40;;;;;;4921008;29;20209;-68
2022/04/20 10:56:21;;;;;;;2.70;2.60;;;11.80;43.10;;;;;;4920810;29;20272;-69
2022/04/20 10:59:10;;;;;;;2.85;2.75;;;11.60;43.20;;;;;;4921002;29;20240;-68
2022/04/20 11:02:09;;;;;;;2.42;2.33;;;11.50;43.90;;;;;;4925805;29;20205;-66
2022/04/20 11:04:39;;;;;;;2.63;2.40;;;11.40;44.20;;;;;;4931365;29;20278;-66
2022/04/20 11:07:26;;;;;;;2.40;2.30;;;11.30;44.20;;;;;;4930604;29;20229;-66
2022/04/20 11:10:10;;;;;;;2.83;2.42;;;11.40;44.70;;;;;;4922621;29;20182;-65
2022/04/20 11:18:45;;;;;;;3.58;2.33;;;11.40;45.20;;;;;;4920544;29;20189;-64
2022/04/20 11:21:17;;;;;;;3.10;2.60;;;11.40;44.80;;;;;;4920437;29;20193;-64
2022/04/20 11:23:58;;;;;;;2.95;2.75;;;11.50;45.10;;;;;;4920360;29;20189;-64
2022/04/20 11:26:28;;;;;;;2.88;2.67;;;11.60;44.50;;;;;;4920231;29;20613;-62
2022/04/20 11:28:56;;;;;;;2.60;2.40;;;11.50;44.20;;;;;;4920176;29;20223;-62
2022/04/20 11:31:24;;;;;;;2.90;2.70;;;11.60;44.30;;;;;;4919955;29;20209;-63
2022/04/20 11:34:00;;;;;;;4.10;2.55;;;11.50;43.90;;;;;;4920124;29;20253;-63
2022/04/20 11:36:27;;;;;;;2.15;2.05;;;11.50;44.30;;;;;;4920020;29;20260;-64
2022/04/20 11:38:54;;;;;;;2.90;2.70;;;11.50;45.00;;;;;;4919933;29;20717;-64
2022/04/20 11:41:21;;;;;;;2.90;2.70;;;11.70;44.60;;;;;;4920087;29;20205;-64
2022/04/20 11:43:50;;;;;;;3.33;2.35;;;11.70;44.20;;;;;;4920134;29;20233;-64
2022/04/20 11:46:20;;;;;;;6.40;2.35;;;11.70;44.70;;;;;;4919829;29;20225;-64
2022/04/20 11:48:56;;;;;;;2.90;2.70;;;11.70;45.00;;;;;;4919924;29;20236;-64
2022/04/20 11:51:25;;;;;;;3.63;3.35;;;11.80;44.60;;;;;;4919223;29;20194;-64
2022/04/20 11:53:52;;;;;;;3.05;2.75;;;11.70;44.50;;;;;;4919900;29;20248;-65
2022/04/20 11:56:32;;;;;;;3.67;2.63;;;11.70;44.50;;;;;;4919627;29;20268;-65
2022/04/20 11:58:59;;;;;;;2.80;2.70;;;11.80;44.60;;;;;;4919540;29;20716;-64
2022/04/20 12:01:26;;;;;;;2.30;2.20;;;11.70;44.10;;;;;;4919800;29;20236;-64
2022/04/20 12:03:55;;;;;;;3.28;2.85;;;11.70;44.50;;;;;;4919642;29;20252;-64
2022/04/20 12:06:25;;;;;;;2.58;2.38;;;11.80;44.40;;;;;;4919566;29;20260;-65
2022/04/20 12:08:54;;;;;;;2.63;2.53;;;11.80;44.60;;;;;;4919668;29;20228;-64
2022/04/20 12:11:21;;;;;;;2.88;2.67;;;11.90;45.00;;;;;;4919302;29;20572;-65
2022/04/20 12:13:54;;;;;;;2.60;2.50;;;12.10;45.00;;;;;;4919252;29;20247;-65
2022/04/20 12:16:23;;;;;;;3.30;3.10;;;12.10;44.20;;;;;;4919107;29;20225;-64
2022/04/20 12:18:50;;;;;;;2.47;2.35;;;12.10;43.30;;;;;;4919402;29;20197;-64
2022/04/20 12:21:44;;;;;;;3.00;2.65;;;12.10;44.20;;;;;;4919282;29;20244;-65
2022/04/20 12:24:20;;;;;;;5.80;2.90;;;12.10;43.30;;;;;;4919361;29;20280;-62
2022/04/20 12:26:48;;;;;;;3.00;2.80;;;12.00;43.30;;;;;;4919343;29;20315;-64
2022/04/20 12:29:18;;;;;;;3.17;2.97;;;12.00;44.30;;;;;;4919591;29;20417;-64
2022/04/20 12:31:47;;;;;;;2.22;2.13;;;12.10;43.80;;;;;;4922768;29;20709;-64
2022/04/20 12:34:16;;;;;;;7.05;2.90;;;12.10;43.90;;;;;;4922549;29;20229;-64
2022/04/20 12:36:59;;;;;;;2.63;2.53;;;12.20;43.50;;;;;;4920854;29;20236;-64
2022/04/20 12:39:31;;;;;;;2.92;2.72;;;12.30;43.80;;;;;;4918987;29;20200;-63
2022/04/20 12:41:59;;;;;;;2.60;2.40;;;12.30;43.70;;;;;;4918881;29;20654;-64
2022/04/20 12:44:51;;;;;;;2.88;2.72;;;12.40;43.30;;;;;;4919004;29;20205;-64
2022/04/20 12:47:34;;;;;;;2.92;2.72;;;12.40;43.30;;;;;;4918755;29;20245;-64
2022/04/20 12:50:18;;;;;;;2.90;2.70;;;12.40;43.30;;;;;;4918608;29;20225;-64
2022/04/20 12:52:58;;;;;;;2.92;2.72;;;12.30;42.80;;;;;;4919402;29;20204;-63
2022/04/20 12:55:35;;;;;;;2.50;2.40;;;12.30;43.10;;;;;;4919089;29;20228;-64
2022/04/20 13:03:37;;;;;;;3.53;3.03;;;12.40;43.20;;;;;;4918805;29;20188;-63
2022/04/20 13:06:10;;;;;;;2.70;2.50;;;12.40;42.50;;;;;;4918517;29;20229;-64
2022/04/20 13:08:39;;;;;;;3.58;3.30;;;12.40;42.60;;;;;;4918183;29;20700;-65
2022/04/20 13:11:06;;;;;;;5.25;3.38;;;12.40;42.50;;;;;;4918451;29;20264;-64
2022/04/20 13:13:33;;;;;;;5.25;3.00;;;12.40;42.10;;;;;;4918540;29;20300;-64
2022/04/20 13:16:00;;;;;;;2.30;2.20;;;12.50;42.00;;;;;;4918378;29;20253;-65
2022/04/20 13:18:27;;;;;;;4.95;3.00;;;12.50;41.40;;;;;;4918355;29;20207;-65
2022/04/20 13:20:55;;;;;;;3.45;3.15;;;12.50;41.90;;;;;;4918274;29;20202;-64
2022/04/20 13:23:23;;;;;;;3.65;2.83;;;12.40;41.40;;;;;;4917929;29;20215;-64
2022/04/20 13:28:35;;;;;;;4.05;2.88;;;12.60;42.10;;;;;;4918615;29;20215;-65
2022/04/20 13:31:02;;;;;;;3.70;3.20;;;12.60;41.30;;;;;;4918167;29;20236;-63
2022/04/20 13:33:29;;;;;;;3.20;3.00;;;12.60;41.60;;;;;;4918209;29;20257;-64
2022/04/20 13:35:56;;;;;;;3.60;3.03;;;12.60;41.20;;;;;;4918099;29;20257;-63
2022/04/20 13:38:23;;;;;;;2.58;2.47;;;12.70;41.20;;;;;;4918122;29;20205;-64
2022/04/20 13:40:52;;;;;;;2.40;2.30;;;12.70;41.20;;;;;;4918031;29;20719;-64
2022/04/20 13:43:19;;;;;;;2.88;2.78;;;12.80;41.30;;;;;;4918058;29;20202;-64
2022/04/20 13:45:46;;;;;;;3.05;2.95;;;12.80;40.60;;;;;;4917719;29;20230;-64
2022/04/20 13:48:13;;;;;;;3.38;3.17;;;12.80;40.60;;;;;;4917387;29;20213;-64
2022/04/20 13:50:39;;;;;;;4.07;2.83;;;12.80;40.60;;;;;;4917799;29;20613;-64
2022/04/20 13:53:08;;;;;;;3.35;2.80;;;12.70;41.20;;;;;;4917970;29;20240;-64
2022/04/20 13:55:36;;;;;;;2.65;2.50;;;12.70;41.20;;;;;;4917444;29;20593;-64
2022/04/20 13:58:07;;;;;;;3.30;2.90;;;12.80;41.20;;;;;;4917849;29;20292;-64
2022/04/20 14:00:34;;;;;;;6.53;3.03;;;12.90;40.80;;;;;;4917784;29;20189;-64
2022/04/20 14:03:01;;;;;;;3.38;3.05;;;12.90;40.30;;;;;;4917688;29;20205;-65
2022/04/20 14:05:28;;;;;;;2.20;2.10;;;12.90;39.90;;;;;;4917324;29;20268;-65
2022/04/20 14:07:56;;;;;;;4.90;3.10;;;12.90;40.20;;;;;;4917862;29;20571;-64
2022/04/20 14:10:23;;;;;;;2.63;2.50;;;13.00;40.20;;;;;;4917603;29;20235;-65
2022/04/20 14:12:50;;;;;;;3.22;2.80;;;13.00;39.60;;;;;;4917718;29;20205;-64
2022/04/20 14:15:18;;;;;;;3.20;2.85;;;13.10;39.70;;;;;;4917324;29;20231;-64
2022/04/20 14:17:46;;;;;;;3.05;2.85;;;13.10;39.80;;;;;;4917551;29;20212;-64
2022/04/20 14:20:14;;;;;;;3.60;3.30;;;13.00;39.70;;;;;;4917249;29;20673;-64
2022/04/20 14:22:42;;;;;;;4.85;2.80;;;13.00;39.80;;;;;;4917222;29;20683;-63
2022/04/20 14:33:29;;;;;;;3.03;2.83;;;13.00;40.00;;;;;;4917658;29;20649;-64
2022/04/20 14:35:56;;;;;;;5.47;3.25;;;13.00;39.40;;;;;;4917616;29;20261;-64
2022/04/20 14:38:24;;;;;;;4.18;3.33;;;13.00;39.70;;;;;;4917741;29;20236;-64
2022/04/20 14:40:52;;;;;;;3.15;2.90;;;12.90;39.30;;;;;;4917919;29;20206;-64
2022/04/20 14:43:19;;;;;;;3.45;3.35;;;12.90;40.10;;;;;;4917542;29;20209;-64
2022/04/20 14:45:48;;;;;;;6.03;3.03;;;12.90;39.90;;;;;;4917255;29;20225;-64
2022/04/20 14:48:15;;;;;;;2.28;2.17;;;13.00;39.70;;;;;;4916983;29;20217;-64
2022/04/20 14:50:43;;;;;;;4.60;2.95;;;13.00;40.20;;;;;;4916968;29;20229;-63
2022/04/20 14:53:11;;;;;;;3.42;2.75;;;13.00;40.20;;;;;;4917154;29;20217;-63
2022/04/20 14:55:38;;;;;;;2.63;2.42;;;13.10;40.00;;;;;;4917169;29;20741;-63
2022/04/20 14:58:05;;;;;;;3.90;2.92;;;13.10;39.80;;;;;;4917412;29;20237;-63
2022/04/20 15:00:33;;;;;;;3.75;2.80;;;13.20;38.70;;;;;;4917277;29;20237;-64
2022/04/20 15:03:01;;;;;;;1.88;1.77;;;13.10;38.20;;;;;;4916745;29;20202;-64
2022/04/20 15:05:28;;;;;;;3.13;2.65;;;13.10;38.60;;;;;;4917297;29;20362;-65
2022/04/20 15:07:56;;;;;;;3.83;2.67;;;13.20;38.80;;;;;;4917165;29;20229;-65
2022/04/20 15:10:23;;;;;;;4.82;3.30;;;13.20;39.10;;;;;;4917143;29;20216;-65
2022/04/20 15:12:50;;;;;;;4.07;3.33;;;13.10;39.40;;;;;;4917069;29;20255;-66
2022/04/20 15:15:17;;;;;;;2.92;2.72;;;13.20;39.20;;;;;;4916963;29;20205;-66
2022/04/20 15:17:45;;;;;;;2.30;2.20;;;13.20;39.50;;;;;;4917205;29;20213;-65
2022/04/20 15:20:14;;;;;;;3.30;3.00;;;13.20;39.90;;;;;;4916831;29;20197;-66
2022/04/20 15:22:42;;;;;;;4.03;2.90;;;13.20;40.00;;;;;;4916631;29;20256;-64
2022/04/20 15:25:11;;;;;;;3.10;2.95;;;13.30;40.00;;;;;;4916672;29;20300;-65
2022/04/20 15:27:39;;;;;;;4.57;2.88;;;13.30;39.50;;;;;;4919181;29;20202;-66
2022/04/20 15:30:07;;;;;;;4.97;3.17;;;13.20;39.00;;;;;;4920346;29;20235;-65
2022/04/20 15:32:34;;;;;;;2.97;2.88;;;13.20;39.40;;;;;;4920560;29;20240;-66
2022/04/20 15:35:04;;;;;;;2.80;2.70;;;13.20;39.60;;;;;;4920493;29;20209;-66
2022/04/20 15:37:32;;;;;;;2.90;2.80;;;13.20;39.70;;;;;;4920093;29;20202;-65
2022/04/20 15:39:59;;;;;;;3.28;3.08;;;13.20;39.80;;;;;;4920032;29;20707;-65
2022/04/20 15:42:26;;;;;;;4.47;3.03;;;13.20;39.80;;;;;;4919859;29;20551;-65
2022/04/20 15:44:57;;;;;;;3.80;3.50;;;13.20;39.70;;;;;;4920202;29;20666;-65
2022/04/20 15:47:24;;;;;;;3.30;3.03;;;13.20;39.30;;;;;;4920632;29;20237;-65
2022/04/20 15:49:51;;;;;;;3.40;3.10;;;13.10;39.80;;;;;;4919609;29;20256;-64
2022/04/20 15:52:18;;;;;;;3.97;3.67;;;13.00;39.70;;;;;;4919923;29;20206;-64
2022/04/20 16:00:13;;;;;;;3.28;3.03;;;13.00;39.60;;;;;;4919833;29;20205;-66
2022/04/20 16:00:20;;;;;;;3.97;3.55;;;13.00;39.80;;;;;;4919707;29;20208;-65
2022/04/20 16:02:51;;;;;;;3.30;3.10;;;13.00;39.80;;;;;;4919864;29;20205;-65
2022/04/20 16:05:18;;;;;;;3.85;3.55;;;13.00;40.20;;;;;;4921115;29;20189;-65
2022/04/20 16:07:45;;;;;;;3.72;3.42;;;13.00;40.10;;;;;;4920420;29;20233;-64
2022/04/20 16:10:13;;;;;;;4.22;3.92;;;12.90;39.30;;;;;;4920059;29;20283;-63
2022/04/20 16:12:40;;;;;;;3.80;3.60;;;12.80;39.60;;;;;;4919961;29;20277;-64
2022/04/20 16:15:08;;;;;;;6.40;4.05;;;12.70;39.70;;;;;;4919538;29;20206;-64
2022/04/20 16:17:35;;;;;;;4.45;4.15;;;12.60;39.50;;;;;;4919550;29;20209;-66
2022/04/20 16:20:02;;;;;;;5.68;3.80;;;12.60;39.90;;;;;;4919537;29;20573;-64
2022/04/20 16:22:29;;;;;;;3.67;3.47;;;12.50;40.00;;;;;;4919701;29;20205;-64
2022/04/20 16:24:56;;;;;;;3.47;3.35;;;12.50;40.30;;;;;;4919862;29;20244;-65
2022/04/20 16:27:26;;;;;;;3.40;3.20;;;12.50;40.60;;;;;;4917666;29;20249;-65
2022/04/20 16:29:53;;;;;;;3.58;3.30;;;12.50;40.60;;;;;;4919312;29;20229;-65
2022/04/20 16:32:22;;;;;;;4.82;3.75;;;12.50;40.60;;;;;;4919109;29;20247;-65
2022/04/20 16:34:49;;;;;;;5.68;3.90;;;12.40;40.40;;;;;;4919234;29;20265;-65
2022/04/20 16:37:16;;;;;;;3.60;3.40;;;12.40;40.70;;;;;;4918841;29;20257;-65
2022/04/20 16:39:43;;;;;;;3.65;3.35;;;12.30;40.90;;;;;;4919251;29;20240;-65
2022/04/20 16:42:11;;;;;;;4.65;4.25;;;12.30;40.90;;;;;;4919684;29;20205;-69
2022/04/20 16:44:40;;;;;;;4.05;3.70;;;12.30;41.10;;;;;;4919198;29;20202;-69
2022/04/20 16:47:07;;;;;;;3.58;3.38;;;12.30;41.50;;;;;;4918276;29;20260;-69
2022/04/20 16:49:34;;;;;;;4.70;4.30;;;12.20;41.70;;;;;;4918780;29;20720;-70
2022/04/20 16:52:02;;;;;;;4.35;4.03;;;12.20;41.30;;;;;;4918844;29;20208;-70
2022/04/20 16:54:29;;;;;;;6.07;3.78;;;12.20;41.90;;;;;;4918819;29;20232;-68
2022/04/20 16:56:56;;;;;;;4.00;3.75;;;12.20;41.70;;;;;;4918821;29;20233;-67
2022/04/20 16:59:23;;;;;;;4.15;3.85;;;12.10;41.80;;;;;;4918831;29;20700;-69
2022/04/20 17:01:52;;;;;;;5.40;4.50;;;12.10;41.80;;;;;;4918748;29;20236;-68
2022/04/20 17:04:20;;;;;;;4.45;4.15;;;12.00;41.90;;;;;;4921723;29;20206;-70
2022/04/20 17:06:48;;;;;;;4.97;4.50;;;11.90;42.00;;;;;;4921283;29;20260;-69
2022/04/20 17:09:15;;;;;;;5.63;4.30;;;11.90;42.30;;;;;;4923227;29;20212;-70
2022/04/20 17:11:44;;;;;;;4.32;3.97;;;11.80;42.70;;;;;;4922396;29;20232;-69
2022/04/20 17:14:11;;;;;;;6.47;4.72;;;11.90;42.70;;;;;;4922322;29;20205;-69
2022/04/20 17:16:39;;;;;;;5.47;4.95;;;11.80;42.80;;;;;;4922234;29;20257;-68
2022/04/20 17:19:07;;;;;;;6.82;5.07;;;11.70;43.00;;;;;;4922210;29;20301;-69
2022/04/20 17:27:04;;;;;;;6.20;4.40;;;11.60;43.70;;;;;;4921780;29;20220;-69
2022/04/20 17:29:31;;;;;;;4.78;4.45;;;11.50;43.80;;;;;;4923092;29;20198;-69
2022/04/20 17:31:59;;;;;;;4.57;4.28;;;11.50;44.20;;;;;;4921327;29;20234;-69
2022/04/20 17:34:28;;;;;;;5.40;4.70;;;11.40;43.70;;;;;;4922446;29;20245;-69
2022/04/20 17:36:54;;;;;;;4.30;4.00;;;11.40;44.20;;;;;;4922575;29;20233;-69
2022/04/20 17:39:25;;;;;;;4.68;4.38;;;11.30;44.30;;;;;;4922501;29;20201;-68
2022/04/20 17:41:53;;;;;;;4.70;4.30;;;11.30;44.30;;;;;;4922317;29;20185;-68
2022/04/20 17:44:21;;;;;;;5.90;4.63;;;11.20;44.50;;;;;;4922368;29;20253;-69
2022/04/20 17:46:50;;;;;;;5.47;3.83;;;11.20;44.40;;;;;;4922692;29;20272;-70
2022/04/20 17:49:17;;;;;;;4.28;4.03;;;11.10;44.70;;;;;;4922533;29;20292;-69
2022/04/20 17:51:47;;;;;;;4.50;4.10;;;11.10;44.70;;;;;;4921838;29;20240;-69
2022/04/20 17:54:16;;;;;;;4.10;3.80;;;11.00;44.80;;;;;;4921133;29;20245;-69
2022/04/20 17:56:46;;;;;;;7.05;3.97;;;11.00;45.00;;;;;;4922991;29;20289;-69
2022/04/20 17:59:17;;;;;;;3.78;3.45;;;10.90;44.90;;;;;;4923236;29;20213;-69
2022/04/20 18:01:44;;;;;;;3.75;3.50;;;10.90;45.20;;;;;;4918466;29;20225;-68
2022/04/20 18:04:12;;;;;;;4.65;4.25;;;10.80;45.10;;;;;;4917866;29;20237;-67
2022/04/20 18:06:40;;;;;;;4.00;3.70;;;10.70;45.00;;;;;;4917573;29;20233;-68
2022/04/20 18:09:09;;;;;;;3.90;3.63;;;10.70;45.30;;;;;;4917537;29;20213;-69
2022/04/20 18:11:37;;;;;;;4.75;4.22;;;10.60;45.10;;;;;;4917774;29;20712;-69
2022/04/20 18:14:05;;;;;;;4.78;4.38;;;10.60;45.20;;;;;;4918518;29;20205;-68
2022/04/20 18:16:32;;;;;;;5.10;4.70;;;10.50;45.20;;;;;;4917656;29;20257;-69
2022/04/20 18:19:00;;;;;;;4.68;4.38;;;10.40;45.40;;;;;;4917889;29;20292;-68
2022/04/20 18:21:27;;;;;;;5.47;4.60;;;10.40;45.40;;;;;;4917790;29;20201;-69
2022/04/20 18:23:54;;;;;;;5.43;4.85;;;10.30;45.60;;;;;;4917709;29;20233;-69
2022/04/20 18:26:23;;;;;;;4.20;3.90;;;10.20;45.50;;;;;;4917619;29;20277;-67
2022/04/20 18:28:50;;;;;;;6.63;3.72;;;10.20;45.90;;;;;;4917580;29;20210;-67
2022/04/20 18:31:17;;;;;;;5.38;4.07;;;10.10;45.90;;;;;;4917044;29;20225;-67
2022/04/20 18:33:44;;;;;;;5.30;4.63;;;10.10;46.10;;;;;;4917423;29;20201;-68
2022/04/20 18:36:12;;;;;;;5.00;4.35;;;10.00;46.10;;;;;;4917550;29;20221;-68
2022/04/20 18:38:40;;;;;;;4.70;4.20;;;9.90;47.00;;;;;;4917569;29;20213;-69
2022/04/20 18:41:07;;;;;;;4.07;3.78;;;9.90;47.40;;;;;;4917926;29;20208;-69